sensor_id;sensor_type;location;lat;lon;timestamp;P1;durP1;ratioP1;P2;durP2;ratioP2
64903;SDS011;51401;48.882;12.598;2023-04-03T00:01:27;4.05;;;2.40;;
64903;SDS011;51401;48.882;12.598;2023-04-03T00:03:53;4.03;;;2.65;;
64903;SDS011;51401;48.882;12.598;2023-04-03T00:06:18;3.25;;;2.72;;
64903;SDS011;51401;48.882;12.598;2023-04-03T00:08:44;4.70;;;3.13;;
64903;SDS011;51401;48.882;12.598;2023-04-03T00:11:09;3.28;;;2.63;;
64903;SDS011;51401;48.882;12.598;2023-04-03T00:13:35;3.15;;;2.53;;
64903;SDS011;51401;48.882;12.598;2023-04-03T00:16:01;2.97;;;2.47;;
64903;SDS011;51401;48.882;12.598;2023-04-03T00:18:28;3.25;;;2.30;;
64903;SDS011;51401;48.882;12.598;2023-04-03T00:20:53;4.10;;;3.08;;
64903;SDS011;51401;48.882;12.598;2023-04-03T00:23:19;3.20;;;2.67;;
64903;SDS011;51401;48.882;12.598;2023-04-03T00:25:44;4.80;;;2.90;;
64903;SDS011;51401;48.882;12.598;2023-04-03T00:28:09;3.60;;;2.72;;
64903;SDS011;51401;48.882;12.598;2023-04-03T00:30:35;5.95;;;2.83;;
64903;SDS011;51401;48.882;12.598;2023-04-03T00:33:00;3.03;;;2.45;;
64903;SDS011;51401;48.882;12.598;2023-04-03T00:35:26;4.40;;;2.47;;
64903;SDS011;51401;48.882;12.598;2023-04-03T00:37:53;3.42;;;2.63;;
64903;SDS011;51401;48.882;12.598;2023-04-03T00:40:19;3.45;;;2.63;;
64903;SDS011;51401;48.882;12.598;2023-04-03T00:42:47;3.53;;;3.22;;
64903;SDS011;51401;48.882;12.598;2023-04-03T00:45:26;3.63;;;2.92;;
64903;SDS011;51401;48.882;12.598;2023-04-03T00:48:13;4.35;;;2.70;;
64903;SDS011;51401;48.882;12.598;2023-04-03T00:50:43;4.22;;;3.05;;
64903;SDS011;51401;48.882;12.598;2023-04-03T00:53:11;4.18;;;2.83;;
64903;SDS011;51401;48.882;12.598;2023-04-03T00:55:41;3.38;;;2.47;;
64903;SDS011;51401;48.882;12.598;2023-04-03T00:58:07;3.58;;;3.08;;
64903;SDS011;51401;48.882;12.598;2023-04-03T01:00:34;3.78;;;2.95;;
64903;SDS011;51401;48.882;12.598;2023-04-03T01:03:03;5.13;;;2.80;;
64903;SDS011;51401;48.882;12.598;2023-04-03T01:05:28;4.18;;;2.83;;
64903;SDS011;51401;48.882;12.598;2023-04-03T01:07:54;4.55;;;3.10;;
64903;SDS011;51401;48.882;12.598;2023-04-03T01:10:20;3.95;;;2.53;;
64903;SDS011;51401;48.882;12.598;2023-04-03T01:12:47;3.90;;;2.95;;
64903;SDS011;51401;48.882;12.598;2023-04-03T01:15:17;3.35;;;2.80;;
64903;SDS011;51401;48.882;12.598;2023-04-03T01:17:51;3.45;;;3.15;;
64903;SDS011;51401;48.882;12.598;2023-04-03T01:25:42;6.05;;;3.40;;
64903;SDS011;51401;48.882;12.598;2023-04-03T01:28:14;4.25;;;2.55;;
64903;SDS011;51401;48.882;12.598;2023-04-03T01:30:48;4.00;;;2.75;;
64903;SDS011;51401;48.882;12.598;2023-04-03T01:33:15;4.13;;;3.40;;
64903;SDS011;51401;48.882;12.598;2023-04-03T01:35:40;4.25;;;3.00;;
64903;SDS011;51401;48.882;12.598;2023-04-03T01:38:06;4.93;;;3.15;;
64903;SDS011;51401;48.882;12.598;2023-04-03T01:40:31;3.78;;;2.83;;
64903;SDS011;51401;48.882;12.598;2023-04-03T01:42:57;5.13;;;3.13;;
64903;SDS011;51401;48.882;12.598;2023-04-03T01:45:22;4.15;;;3.42;;
64903;SDS011;51401;48.882;12.598;2023-04-03T01:47:47;3.63;;;3.22;;
64903;SDS011;51401;48.882;12.598;2023-04-03T01:50:13;4.30;;;3.33;;
64903;SDS011;51401;48.882;12.598;2023-04-03T01:52:38;4.88;;;3.58;;
64903;SDS011;51401;48.882;12.598;2023-04-03T01:55:04;3.83;;;3.42;;
64903;SDS011;51401;48.882;12.598;2023-04-03T01:57:29;3.97;;;3.22;;
64903;SDS011;51401;48.882;12.598;2023-04-03T01:59:55;4.57;;;3.40;;
64903;SDS011;51401;48.882;12.598;2023-04-03T02:02:20;3.63;;;3.13;;
64903;SDS011;51401;48.882;12.598;2023-04-03T02:04:45;5.88;;;4.18;;
64903;SDS011;51401;48.882;12.598;2023-04-03T02:07:11;4.82;;;3.75;;
64903;SDS011;51401;48.882;12.598;2023-04-03T02:09:37;5.63;;;3.88;;
64903;SDS011;51401;48.882;12.598;2023-04-03T02:12:02;5.15;;;3.60;;
64903;SDS011;51401;48.882;12.598;2023-04-03T02:14:27;5.60;;;3.53;;
64903;SDS011;51401;48.882;12.598;2023-04-03T02:16:53;4.55;;;3.50;;
64903;SDS011;51401;48.882;12.598;2023-04-03T02:19:18;4.97;;;3.80;;
64903;SDS011;51401;48.882;12.598;2023-04-03T02:21:43;4.40;;;3.50;;
64903;SDS011;51401;48.882;12.598;2023-04-03T02:24:09;4.78;;;3.58;;
64903;SDS011;51401;48.882;12.598;2023-04-03T02:26:34;4.97;;;3.75;;
64903;SDS011;51401;48.882;12.598;2023-04-03T02:29:00;5.00;;;3.97;;
64903;SDS011;51401;48.882;12.598;2023-04-03T02:31:25;6.43;;;3.45;;
64903;SDS011;51401;48.882;12.598;2023-04-03T02:33:51;5.32;;;3.45;;
64903;SDS011;51401;48.882;12.598;2023-04-03T02:36:16;4.68;;;3.78;;
64903;SDS011;51401;48.882;12.598;2023-04-03T02:38:41;4.47;;;3.30;;
64903;SDS011;51401;48.882;12.598;2023-04-03T02:41:07;4.10;;;3.70;;
64903;SDS011;51401;48.882;12.598;2023-04-03T02:43:34;4.85;;;3.70;;
64903;SDS011;51401;48.882;12.598;2023-04-03T02:46:00;5.30;;;3.72;;
64903;SDS011;51401;48.882;12.598;2023-04-03T02:48:26;4.47;;;3.83;;
64903;SDS011;51401;48.882;12.598;2023-04-03T02:50:51;4.25;;;3.47;;
64903;SDS011;51401;48.882;12.598;2023-04-03T02:53:17;6.82;;;4.10;;
64903;SDS011;51401;48.882;12.598;2023-04-03T02:55:43;5.38;;;4.18;;
64903;SDS011;51401;48.882;12.598;2023-04-03T02:58:09;5.72;;;3.90;;
64903;SDS011;51401;48.882;12.598;2023-04-03T03:00:35;6.18;;;3.85;;
64903;SDS011;51401;48.882;12.598;2023-04-03T03:03:00;5.10;;;3.47;;
64903;SDS011;51401;48.882;12.598;2023-04-03T03:05:26;6.00;;;3.53;;
64903;SDS011;51401;48.882;12.598;2023-04-03T03:07:52;6.00;;;3.72;;
64903;SDS011;51401;48.882;12.598;2023-04-03T03:10:18;5.20;;;4.10;;
64903;SDS011;51401;48.882;12.598;2023-04-03T03:12:43;5.70;;;3.95;;
64903;SDS011;51401;48.882;12.598;2023-04-03T03:15:08;5.57;;;4.30;;
64903;SDS011;51401;48.882;12.598;2023-04-03T03:17:34;5.28;;;4.00;;
64903;SDS011;51401;48.882;12.598;2023-04-03T03:20:01;6.07;;;4.40;;
64903;SDS011;51401;48.882;12.598;2023-04-03T03:22:27;7.60;;;4.45;;
64903;SDS011;51401;48.882;12.598;2023-04-03T03:24:53;4.95;;;4.45;;
64903;SDS011;51401;48.882;12.598;2023-04-03T03:27:18;6.80;;;4.60;;
64903;SDS011;51401;48.882;12.598;2023-04-03T03:29:43;5.53;;;3.88;;
64903;SDS011;51401;48.882;12.598;2023-04-03T03:32:09;8.73;;;4.60;;
64903;SDS011;51401;48.882;12.598;2023-04-03T03:34:34;6.15;;;4.45;;
64903;SDS011;51401;48.882;12.598;2023-04-03T03:36:59;5.28;;;4.20;;
64903;SDS011;51401;48.882;12.598;2023-04-03T03:39:25;5.75;;;4.78;;
64903;SDS011;51401;48.882;12.598;2023-04-03T03:41:50;6.38;;;4.57;;
64903;SDS011;51401;48.882;12.598;2023-04-03T03:44:18;6.88;;;4.65;;
64903;SDS011;51401;48.882;12.598;2023-04-03T03:46:43;5.63;;;4.28;;
64903;SDS011;51401;48.882;12.598;2023-04-03T03:49:09;5.85;;;4.40;;
64903;SDS011;51401;48.882;12.598;2023-04-03T03:51:34;8.40;;;4.68;;
64903;SDS011;51401;48.882;12.598;2023-04-03T03:54:00;5.63;;;4.22;;
64903;SDS011;51401;48.882;12.598;2023-04-03T03:56:25;6.65;;;4.80;;
64903;SDS011;51401;48.882;12.598;2023-04-03T03:58:51;8.68;;;5.15;;
64903;SDS011;51401;48.882;12.598;2023-04-03T04:01:17;6.75;;;5.35;;
64903;SDS011;51401;48.882;12.598;2023-04-03T04:03:42;5.47;;;4.20;;
64903;SDS011;51401;48.882;12.598;2023-04-03T04:06:08;7.85;;;5.13;;
64903;SDS011;51401;48.882;12.598;2023-04-03T04:08:33;8.57;;;5.00;;
64903;SDS011;51401;48.882;12.598;2023-04-03T04:10:58;6.55;;;4.45;;
64903;SDS011;51401;48.882;12.598;2023-04-03T04:13:24;5.93;;;4.05;;
64903;SDS011;51401;48.882;12.598;2023-04-03T04:15:49;7.30;;;4.93;;
64903;SDS011;51401;48.882;12.598;2023-04-03T04:18:15;8.23;;;4.88;;
64903;SDS011;51401;48.882;12.598;2023-04-03T04:20:40;5.55;;;4.43;;
64903;SDS011;51401;48.882;12.598;2023-04-03T04:23:05;7.25;;;5.07;;
64903;SDS011;51401;48.882;12.598;2023-04-03T04:25:31;6.15;;;4.50;;
64903;SDS011;51401;48.882;12.598;2023-04-03T04:27:57;9.75;;;5.50;;
64903;SDS011;51401;48.882;12.598;2023-04-03T04:30:23;8.27;;;5.03;;
64903;SDS011;51401;48.882;12.598;2023-04-03T04:32:48;5.95;;;5.03;;
64903;SDS011;51401;48.882;12.598;2023-04-03T04:35:13;5.07;;;4.57;;
64903;SDS011;51401;48.882;12.598;2023-04-03T04:37:38;6.13;;;4.70;;
64903;SDS011;51401;48.882;12.598;2023-04-03T04:40:04;6.97;;;5.50;;
64903;SDS011;51401;48.882;12.598;2023-04-03T04:42:30;5.15;;;4.65;;
64903;SDS011;51401;48.882;12.598;2023-04-03T04:44:55;6.18;;;5.40;;
64903;SDS011;51401;48.882;12.598;2023-04-03T04:47:20;8.60;;;4.80;;
64903;SDS011;51401;48.882;12.598;2023-04-03T04:49:45;8.32;;;5.65;;
64903;SDS011;51401;48.882;12.598;2023-04-03T04:52:12;5.95;;;4.60;;
64903;SDS011;51401;48.882;12.598;2023-04-03T04:54:38;7.47;;;4.90;;
64903;SDS011;51401;48.882;12.598;2023-04-03T04:57:03;5.10;;;4.45;;
64903;SDS011;51401;48.882;12.598;2023-04-03T04:59:29;7.30;;;4.95;;
64903;SDS011;51401;48.882;12.598;2023-04-03T05:01:54;6.38;;;5.22;;
64903;SDS011;51401;48.882;12.598;2023-04-03T05:04:19;7.13;;;5.15;;
64903;SDS011;51401;48.882;12.598;2023-04-03T05:06:45;6.80;;;4.80;;
64903;SDS011;51401;48.882;12.598;2023-04-03T05:09:10;6.93;;;4.85;;
64903;SDS011;51401;48.882;12.598;2023-04-03T05:11:35;7.35;;;4.60;;
64903;SDS011;51401;48.882;12.598;2023-04-03T05:14:01;7.43;;;4.47;;
64903;SDS011;51401;48.882;12.598;2023-04-03T05:16:26;5.65;;;4.57;;
64903;SDS011;51401;48.882;12.598;2023-04-03T05:18:52;6.05;;;4.55;;
64903;SDS011;51401;48.882;12.598;2023-04-03T05:21:17;5.05;;;4.43;;
64903;SDS011;51401;48.882;12.598;2023-04-03T05:23:48;7.13;;;4.30;;
64903;SDS011;51401;48.882;12.598;2023-04-03T05:26:13;8.43;;;5.05;;
64903;SDS011;51401;48.882;12.598;2023-04-03T05:28:38;5.88;;;4.75;;
64903;SDS011;51401;48.882;12.598;2023-04-03T05:31:03;5.18;;;4.35;;
64903;SDS011;51401;48.882;12.598;2023-04-03T05:33:29;6.22;;;4.78;;
64903;SDS011;51401;48.882;12.598;2023-04-03T05:35:54;5.82;;;4.47;;
64903;SDS011;51401;48.882;12.598;2023-04-03T05:38:20;6.68;;;4.90;;
64903;SDS011;51401;48.882;12.598;2023-04-03T05:40:46;6.68;;;4.22;;
64903;SDS011;51401;48.882;12.598;2023-04-03T05:43:12;6.20;;;4.63;;
64903;SDS011;51401;48.882;12.598;2023-04-03T05:45:37;6.93;;;5.38;;
64903;SDS011;51401;48.882;12.598;2023-04-03T05:48:03;7.65;;;5.07;;
64903;SDS011;51401;48.882;12.598;2023-04-03T05:50:28;6.18;;;4.90;;
64903;SDS011;51401;48.882;12.598;2023-04-03T05:52:55;7.93;;;5.18;;
64903;SDS011;51401;48.882;12.598;2023-04-03T05:55:22;7.30;;;5.13;;
64903;SDS011;51401;48.882;12.598;2023-04-03T05:57:47;4.97;;;4.10;;
64903;SDS011;51401;48.882;12.598;2023-04-03T06:00:13;6.93;;;5.05;;
64903;SDS011;51401;48.882;12.598;2023-04-03T06:02:40;5.32;;;4.28;;
64903;SDS011;51401;48.882;12.598;2023-04-03T06:05:06;6.45;;;4.43;;
64903;SDS011;51401;48.882;12.598;2023-04-03T06:07:33;4.93;;;3.88;;
64903;SDS011;51401;48.882;12.598;2023-04-03T06:09:58;4.72;;;3.97;;
64903;SDS011;51401;48.882;12.598;2023-04-03T06:12:23;7.35;;;4.13;;
64903;SDS011;51401;48.882;12.598;2023-04-03T06:14:49;4.68;;;3.95;;
64903;SDS011;51401;48.882;12.598;2023-04-03T06:17:15;5.75;;;4.15;;
64903;SDS011;51401;48.882;12.598;2023-04-03T06:19:42;5.80;;;3.90;;
64903;SDS011;51401;48.882;12.598;2023-04-03T06:22:08;3.97;;;3.40;;
64903;SDS011;51401;48.882;12.598;2023-04-03T06:24:33;4.95;;;3.75;;
64903;SDS011;51401;48.882;12.598;2023-04-03T06:26:58;3.88;;;3.30;;
64903;SDS011;51401;48.882;12.598;2023-04-03T06:29:24;7.13;;;3.80;;
64903;SDS011;51401;48.882;12.598;2023-04-03T06:31:50;5.38;;;3.63;;
64903;SDS011;51401;48.882;12.598;2023-04-03T06:34:16;4.03;;;3.22;;
64903;SDS011;51401;48.882;12.598;2023-04-03T06:36:42;6.45;;;4.35;;
64903;SDS011;51401;48.882;12.598;2023-04-03T06:39:13;5.28;;;3.80;;
64903;SDS011;51401;48.882;12.598;2023-04-03T06:41:41;3.45;;;2.80;;
64903;SDS011;51401;48.882;12.598;2023-04-03T06:44:06;4.75;;;3.75;;
64903;SDS011;51401;48.882;12.598;2023-04-03T06:46:32;5.82;;;2.60;;
64903;SDS011;51401;48.882;12.598;2023-04-03T06:48:58;3.97;;;2.92;;
64903;SDS011;51401;48.882;12.598;2023-04-03T06:51:27;3.20;;;2.50;;
64903;SDS011;51401;48.882;12.598;2023-04-03T06:56:20;4.95;;;2.33;;
64903;SDS011;51401;48.882;12.598;2023-04-03T06:58:47;2.65;;;2.03;;
64903;SDS011;51401;48.882;12.598;2023-04-03T07:01:13;3.78;;;2.67;;
64903;SDS011;51401;48.882;12.598;2023-04-03T07:03:49;3.08;;;2.67;;
64903;SDS011;51401;48.882;12.598;2023-04-03T07:06:23;4.35;;;2.40;;
64903;SDS011;51401;48.882;12.598;2023-04-03T07:08:54;5.13;;;2.28;;
64903;SDS011;51401;48.882;12.598;2023-04-03T07:11:20;6.57;;;2.30;;
64903;SDS011;51401;48.882;12.598;2023-04-03T07:13:45;2.95;;;2.10;;
64903;SDS011;51401;48.882;12.598;2023-04-03T07:16:11;2.55;;;1.80;;
64903;SDS011;51401;48.882;12.598;2023-04-03T07:18:36;3.55;;;1.98;;
64903;SDS011;51401;48.882;12.598;2023-04-03T07:21:02;2.35;;;2.03;;
64903;SDS011;51401;48.882;12.598;2023-04-03T07:23:28;3.40;;;2.90;;
64903;SDS011;51401;48.882;12.598;2023-04-03T07:25:53;4.50;;;3.70;;
64903;SDS011;51401;48.882;12.598;2023-04-03T07:28:19;3.25;;;1.92;;
64903;SDS011;51401;48.882;12.598;2023-04-03T07:30:52;3.92;;;2.38;;
64903;SDS011;51401;48.882;12.598;2023-04-03T07:33:19;3.70;;;2.30;;
64903;SDS011;51401;48.882;12.598;2023-04-03T07:35:46;4.15;;;2.63;;
64903;SDS011;51401;48.882;12.598;2023-04-03T07:38:12;4.82;;;3.00;;
64903;SDS011;51401;48.882;12.598;2023-04-03T07:40:38;3.63;;;2.10;;
64903;SDS011;51401;48.882;12.598;2023-04-03T07:43:05;2.85;;;1.90;;
64903;SDS011;51401;48.882;12.598;2023-04-03T07:45:30;3.97;;;1.85;;
64903;SDS011;51401;48.882;12.598;2023-04-03T07:47:57;2.42;;;1.63;;
64903;SDS011;51401;48.882;12.598;2023-04-03T07:50:22;3.08;;;1.75;;
64903;SDS011;51401;48.882;12.598;2023-04-03T07:52:48;2.90;;;1.38;;
64903;SDS011;51401;48.882;12.598;2023-04-03T07:55:15;2.33;;;1.40;;
64903;SDS011;51401;48.882;12.598;2023-04-03T07:57:41;3.53;;;1.70;;
64903;SDS011;51401;48.882;12.598;2023-04-03T08:00:07;3.05;;;1.60;;
64903;SDS011;51401;48.882;12.598;2023-04-03T08:02:33;1.92;;;1.23;;
64903;SDS011;51401;48.882;12.598;2023-04-03T08:04:59;1.92;;;1.20;;
64903;SDS011;51401;48.882;12.598;2023-04-03T08:07:24;3.10;;;1.13;;
64903;SDS011;51401;48.882;12.598;2023-04-03T08:09:50;2.80;;;1.30;;
64903;SDS011;51401;48.882;12.598;2023-04-03T08:12:15;2.70;;;1.30;;
64903;SDS011;51401;48.882;12.598;2023-04-03T08:14:53;2.85;;;1.58;;
64903;SDS011;51401;48.882;12.598;2023-04-03T08:17:27;3.47;;;1.40;;
64903;SDS011;51401;48.882;12.598;2023-04-03T08:19:53;1.63;;;1.30;;
64903;SDS011;51401;48.882;12.598;2023-04-03T08:22:19;2.70;;;1.30;;
64903;SDS011;51401;48.882;12.598;2023-04-03T08:24:44;1.50;;;1.17;;
64903;SDS011;51401;48.882;12.598;2023-04-03T08:27:10;2.00;;;1.50;;
64903;SDS011;51401;48.882;12.598;2023-04-03T08:29:38;1.73;;;1.33;;
64903;SDS011;51401;48.882;12.598;2023-04-03T08:32:06;2.47;;;1.30;;
64903;SDS011;51401;48.882;12.598;2023-04-03T08:34:44;1.60;;;1.30;;
64903;SDS011;51401;48.882;12.598;2023-04-03T08:37:48;2.13;;;1.23;;
64903;SDS011;51401;48.882;12.598;2023-04-03T08:40:14;2.40;;;1.50;;
64903;SDS011;51401;48.882;12.598;2023-04-03T08:48:20;2.22;;;1.15;;
64903;SDS011;51401;48.882;12.598;2023-04-03T08:50:50;1.90;;;1.00;;
64903;SDS011;51401;48.882;12.598;2023-04-03T08:53:19;4.32;;;1.15;;
64903;SDS011;51401;48.882;12.598;2023-04-03T08:55:53;1.90;;;1.17;;
64903;SDS011;51401;48.882;12.598;2023-04-03T09:00:58;2.20;;;1.30;;
64903;SDS011;51401;48.882;12.598;2023-04-03T09:03:28;2.72;;;1.50;;
64903;SDS011;51401;48.882;12.598;2023-04-03T09:06:11;1.33;;;1.10;;
64903;SDS011;51401;48.882;12.598;2023-04-03T09:16:55;1.08;;;0.98;;
64903;SDS011;51401;48.882;12.598;2023-04-03T09:21:58;2.17;;;1.95;;
64903;SDS011;51401;48.882;12.598;2023-04-03T09:24:47;2.08;;;1.50;;
64903;SDS011;51401;48.882;12.598;2023-04-03T09:27:17;3.05;;;1.08;;
64903;SDS011;51401;48.882;12.598;2023-04-03T09:29:43;1.08;;;0.98;;
64903;SDS011;51401;48.882;12.598;2023-04-03T09:32:25;2.63;;;0.87;;
64903;SDS011;51401;48.882;12.598;2023-04-03T09:35:10;2.15;;;1.25;;
64903;SDS011;51401;48.882;12.598;2023-04-03T09:37:47;1.38;;;0.77;;
64903;SDS011;51401;48.882;12.598;2023-04-03T09:40:39;1.50;;;1.00;;
64903;SDS011;51401;48.882;12.598;2023-04-03T09:43:29;1.77;;;1.10;;
64903;SDS011;51401;48.882;12.598;2023-04-03T09:45:54;2.20;;;1.13;;
64903;SDS011;51401;48.882;12.598;2023-04-03T09:48:24;4.00;;;1.50;;
64903;SDS011;51401;48.882;12.598;2023-04-03T09:53:34;3.90;;;1.15;;
64903;SDS011;51401;48.882;12.598;2023-04-03T09:56:05;1.67;;;1.00;;
64903;SDS011;51401;48.882;12.598;2023-04-03T09:58:47;1.55;;;1.00;;
64903;SDS011;51401;48.882;12.598;2023-04-03T10:01:34;3.38;;;1.38;;
64903;SDS011;51401;48.882;12.598;2023-04-03T10:04:22;1.40;;;0.80;;
64903;SDS011;51401;48.882;12.598;2023-04-03T10:06:49;1.55;;;1.13;;
64903;SDS011;51401;48.882;12.598;2023-04-03T10:09:23;2.60;;;1.20;;
64903;SDS011;51401;48.882;12.598;2023-04-03T10:12:12;2.40;;;0.80;;
64903;SDS011;51401;48.882;12.598;2023-04-03T10:14:40;2.65;;;0.90;;
64903;SDS011;51401;48.882;12.598;2023-04-03T10:20:06;1.23;;;0.80;;
64903;SDS011;51401;48.882;12.598;2023-04-03T10:26:08;3.50;;;1.27;;
64903;SDS011;51401;48.882;12.598;2023-04-03T10:28:57;1.85;;;1.20;;
64903;SDS011;51401;48.882;12.598;2023-04-03T10:31:34;4.82;;;1.17;;
64903;SDS011;51401;48.882;12.598;2023-04-03T10:34:08;1.77;;;1.00;;
64903;SDS011;51401;48.882;12.598;2023-04-03T10:59:02;2.63;;;1.40;;
64903;SDS011;51401;48.882;12.598;2023-04-03T11:01:48;2.13;;;1.38;;
64903;SDS011;51401;48.882;12.598;2023-04-03T11:04:18;1.88;;;1.20;;
64903;SDS011;51401;48.882;12.598;2023-04-03T11:07:00;2.15;;;0.98;;
64903;SDS011;51401;48.882;12.598;2023-04-03T11:09:30;2.45;;;1.42;;
64903;SDS011;51401;48.882;12.598;2023-04-03T11:12:04;2.90;;;1.40;;
64903;SDS011;51401;48.882;12.598;2023-04-03T11:14:35;1.35;;;1.02;;
64903;SDS011;51401;48.882;12.598;2023-04-03T11:22:41;1.80;;;1.17;;
64903;SDS011;51401;48.882;12.598;2023-04-03T11:28:15;2.55;;;1.42;;
64903;SDS011;51401;48.882;12.598;2023-04-03T11:30:46;1.92;;;1.73;;
64903;SDS011;51401;48.882;12.598;2023-04-03T11:33:23;2.88;;;1.50;;
64903;SDS011;51401;48.882;12.598;2023-04-03T11:35:58;4.13;;;2.80;;
64903;SDS011;51401;48.882;12.598;2023-04-03T11:38:48;2.42;;;1.40;;
64903;SDS011;51401;48.882;12.598;2023-04-03T11:41:17;2.08;;;1.30;;
64903;SDS011;51401;48.882;12.598;2023-04-03T11:44:04;2.28;;;1.25;;
64903;SDS011;51401;48.882;12.598;2023-04-03T11:46:57;1.60;;;1.25;;
64903;SDS011;51401;48.882;12.598;2023-04-03T12:09:02;2.40;;;1.75;;
64903;SDS011;51401;48.882;12.598;2023-04-03T12:11:40;2.55;;;1.38;;
64903;SDS011;51401;48.882;12.598;2023-04-03T12:14:12;2.45;;;1.30;;
64903;SDS011;51401;48.882;12.598;2023-04-03T12:26:47;2.42;;;1.50;;
64903;SDS011;51401;48.882;12.598;2023-04-03T12:29:25;2.15;;;1.60;;
64903;SDS011;51401;48.882;12.598;2023-04-03T12:34:59;1.92;;;1.50;;
64903;SDS011;51401;48.882;12.598;2023-04-03T12:43:40;1.80;;;1.40;;
64903;SDS011;51401;48.882;12.598;2023-04-03T12:46:14;2.40;;;1.90;;
64903;SDS011;51401;48.882;12.598;2023-04-03T12:57:20;7.70;;;4.45;;
64903;SDS011;51401;48.882;12.598;2023-04-03T12:59:48;12.30;;;5.47;;
64903;SDS011;51401;48.882;12.598;2023-04-03T13:08:28;38.40;;;15.73;;
64903;SDS011;51401;48.882;12.598;2023-04-03T13:10:58;40.15;;;17.65;;
64903;SDS011;51401;48.882;12.598;2023-04-03T13:13:28;13.40;;;6.95;;
64903;SDS011;51401;48.882;12.598;2023-04-03T13:15:54;22.48;;;9.40;;
64903;SDS011;51401;48.882;12.598;2023-04-03T13:18:38;15.40;;;9.02;;
64903;SDS011;51401;48.882;12.598;2023-04-03T13:21:23;5.75;;;4.55;;
64903;SDS011;51401;48.882;12.598;2023-04-03T13:23:52;4.53;;;3.22;;
64903;SDS011;51401;48.882;12.598;2023-04-03T13:26:22;2.40;;;1.88;;
64903;SDS011;51401;48.882;12.598;2023-04-03T13:28:51;3.72;;;2.25;;
64903;SDS011;51401;48.882;12.598;2023-04-03T13:31:18;2.50;;;1.50;;
64903;SDS011;51401;48.882;12.598;2023-04-03T13:33:56;2.13;;;1.65;;
64903;SDS011;51401;48.882;12.598;2023-04-03T13:36:38;2.33;;;1.83;;
64903;SDS011;51401;48.882;12.598;2023-04-03T13:39:07;2.67;;;2.15;;
64903;SDS011;51401;48.882;12.598;2023-04-03T13:41:48;2.30;;;1.95;;
64903;SDS011;51401;48.882;12.598;2023-04-03T13:46:54;4.05;;;1.98;;
64903;SDS011;51401;48.882;12.598;2023-04-03T13:49:22;4.03;;;1.70;;
64903;SDS011;51401;48.882;12.598;2023-04-03T13:51:55;1.77;;;1.38;;
64903;SDS011;51401;48.882;12.598;2023-04-03T13:54:24;2.10;;;1.60;;
64903;SDS011;51401;48.882;12.598;2023-04-03T13:56:55;2.95;;;1.60;;
64903;SDS011;51401;48.882;12.598;2023-04-03T14:04:25;2.30;;;1.58;;
64903;SDS011;51401;48.882;12.598;2023-04-03T14:06:53;2.28;;;1.48;;
64903;SDS011;51401;48.882;12.598;2023-04-03T14:09:19;3.15;;;2.33;;
64903;SDS011;51401;48.882;12.598;2023-04-03T14:12:12;1.65;;;1.35;;
64903;SDS011;51401;48.882;12.598;2023-04-03T14:14:41;3.88;;;1.60;;
64903;SDS011;51401;48.882;12.598;2023-04-03T14:17:13;2.92;;;1.70;;
64903;SDS011;51401;48.882;12.598;2023-04-03T14:19:43;3.33;;;2.38;;
64903;SDS011;51401;48.882;12.598;2023-04-03T14:22:43;2.08;;;1.42;;
64903;SDS011;51401;48.882;12.598;2023-04-03T14:25:02;2.17;;;1.40;;
64903;SDS011;51401;48.882;12.598;2023-04-03T14:27:29;2.92;;;2.08;;
64903;SDS011;51401;48.882;12.598;2023-04-03T14:30:03;2.35;;;1.75;;
64903;SDS011;51401;48.882;12.598;2023-04-03T14:32:29;2.58;;;2.05;;
64903;SDS011;51401;48.882;12.598;2023-04-03T14:37:48;2.95;;;1.52;;
64903;SDS011;51401;48.882;12.598;2023-04-03T14:40:16;4.05;;;2.70;;
64903;SDS011;51401;48.882;12.598;2023-04-03T14:42:46;2.47;;;1.73;;
64903;SDS011;51401;48.882;12.598;2023-04-03T14:45:13;2.92;;;1.83;;
64903;SDS011;51401;48.882;12.598;2023-04-03T14:47:58;2.60;;;1.83;;
64903;SDS011;51401;48.882;12.598;2023-04-03T14:50:24;2.03;;;1.73;;
64903;SDS011;51401;48.882;12.598;2023-04-03T14:52:55;2.85;;;1.83;;
64903;SDS011;51401;48.882;12.598;2023-04-03T14:55:24;2.00;;;1.80;;
64903;SDS011;51401;48.882;12.598;2023-04-03T14:57:50;2.17;;;1.60;;
64903;SDS011;51401;48.882;12.598;2023-04-03T15:00:21;2.60;;;1.77;;
64903;SDS011;51401;48.882;12.598;2023-04-03T15:03:41;2.72;;;1.90;;
64903;SDS011;51401;48.882;12.598;2023-04-03T15:05:59;2.58;;;1.77;;
64903;SDS011;51401;48.882;12.598;2023-04-03T15:08:26;2.50;;;1.88;;
64903;SDS011;51401;48.882;12.598;2023-04-03T15:10:55;3.38;;;2.10;;
64903;SDS011;51401;48.882;12.598;2023-04-03T15:13:21;3.03;;;1.80;;
64903;SDS011;51401;48.882;12.598;2023-04-03T15:15:48;3.72;;;2.22;;
64903;SDS011;51401;48.882;12.598;2023-04-03T15:18:18;5.15;;;3.22;;
64903;SDS011;51401;48.882;12.598;2023-04-03T15:20:47;2.53;;;1.48;;
64903;SDS011;51401;48.882;12.598;2023-04-03T15:23:13;2.00;;;1.58;;
64903;SDS011;51401;48.882;12.598;2023-04-03T15:25:43;3.15;;;2.00;;
64903;SDS011;51401;48.882;12.598;2023-04-03T15:28:30;3.75;;;2.22;;
64903;SDS011;51401;48.882;12.598;2023-04-03T15:31:07;2.47;;;2.13;;
64903;SDS011;51401;48.882;12.598;2023-04-03T15:33:34;3.15;;;2.65;;
64903;SDS011;51401;48.882;12.598;2023-04-03T15:36:01;3.67;;;1.80;;
64903;SDS011;51401;48.882;12.598;2023-04-03T15:38:27;2.50;;;1.40;;
64903;SDS011;51401;48.882;12.598;2023-04-03T15:40:55;4.05;;;1.60;;
64903;SDS011;51401;48.882;12.598;2023-04-03T15:43:26;2.28;;;1.60;;
64903;SDS011;51401;48.882;12.598;2023-04-03T15:45:52;2.50;;;1.40;;
64903;SDS011;51401;48.882;12.598;2023-04-03T15:48:21;1.80;;;1.60;;
64903;SDS011;51401;48.882;12.598;2023-04-03T15:50:46;3.45;;;1.90;;
64903;SDS011;51401;48.882;12.598;2023-04-03T15:53:11;2.00;;;1.63;;
64903;SDS011;51401;48.882;12.598;2023-04-03T15:55:37;2.75;;;1.98;;
64903;SDS011;51401;48.882;12.598;2023-04-03T15:58:03;2.35;;;1.92;;
64903;SDS011;51401;48.882;12.598;2023-04-03T16:00:29;2.90;;;1.95;;
64903;SDS011;51401;48.882;12.598;2023-04-03T16:02:57;3.13;;;1.98;;
64903;SDS011;51401;48.882;12.598;2023-04-03T16:05:26;2.38;;;1.65;;
64903;SDS011;51401;48.882;12.598;2023-04-03T16:07:52;2.15;;;1.60;;
64903;SDS011;51401;48.882;12.598;2023-04-03T16:10:18;2.22;;;1.60;;
64903;SDS011;51401;48.882;12.598;2023-04-03T16:12:44;1.80;;;1.50;;
64903;SDS011;51401;48.882;12.598;2023-04-03T16:15:10;2.80;;;1.60;;
64903;SDS011;51401;48.882;12.598;2023-04-03T16:17:36;3.00;;;1.95;;
64903;SDS011;51401;48.882;12.598;2023-04-03T16:20:02;1.92;;;1.60;;
64903;SDS011;51401;48.882;12.598;2023-04-03T16:22:29;4.45;;;1.77;;
64903;SDS011;51401;48.882;12.598;2023-04-03T16:24:55;3.50;;;2.10;;
64903;SDS011;51401;48.882;12.598;2023-04-03T16:27:20;3.20;;;2.30;;
64903;SDS011;51401;48.882;12.598;2023-04-03T16:29:46;1.83;;;1.58;;
64903;SDS011;51401;48.882;12.598;2023-04-03T16:32:11;2.08;;;1.85;;
64903;SDS011;51401;48.882;12.598;2023-04-03T16:34:38;1.92;;;1.33;;
64903;SDS011;51401;48.882;12.598;2023-04-03T16:37:05;3.25;;;1.80;;
64903;SDS011;51401;48.882;12.598;2023-04-03T16:39:30;2.95;;;1.80;;
64903;SDS011;51401;48.882;12.598;2023-04-03T16:41:55;2.60;;;1.48;;
64903;SDS011;51401;48.882;12.598;2023-04-03T16:44:21;4.00;;;1.70;;
64903;SDS011;51401;48.882;12.598;2023-04-03T16:46:46;3.75;;;1.80;;
64903;SDS011;51401;48.882;12.598;2023-04-03T16:49:11;3.78;;;3.05;;
64903;SDS011;51401;48.882;12.598;2023-04-03T16:51:37;3.15;;;2.00;;
64903;SDS011;51401;48.882;12.598;2023-04-03T16:54:02;7.55;;;3.95;;